Latest Weather Observations for Robe Airport

IDS60801

Issued at 11:05 pm CST Friday 1 August 2014 (issued every 30 minutes, with the page automatically refreshed every 10 minutes)

About weather observations | Map of weather stations | Latest weather observations for SA | Other Formats
Station Details ID: 026105 Name: ROBE AIRFIELD Lat: -37.18 Lon: 139.81 Height: 3.0 m
Data from the previous 72 hours. | See also: Recent months for locations in South Australia
Date/Time
CST
Temp
°C
App
Temp
°C
Dew
Point
Rel
Hum
%
Delta-T
°C
Wind Press
QNH
hPa
Press
MSL
hPa
Rain
since 9 am
mm
Dir
 
Spd
km/h
Gust
km/h
Spd
kts
Gust
kts
01/11:00pm 7.9 2.8 3.2 72 2.0 S 19 28 10 15 1027.0 - 2.6
01/10:46pm 8.8 1.8 4.0 72 2.1 S 30 37 16 20 1027.0 - 2.6
01/10:30pm 8.5 5.1 2.1 64 2.6 SSW 9 11 5 6 1026.8 1026.8 2.4
01/10:00pm 8.7 4.9 1.6 61 2.9 SW 11 15 6 8 1026.5 - 2.4
01/09:30pm 7.4 5.2 3.1 74 1.8 SSW 4 9 2 5 1026.2 1026.2 2.4
01/09:00pm 7.0 3.2 1.9 70 2.1 S 11 15 6 8 1025.8 1025.8 2.4
01/08:30pm 9.1 1.6 3.3 67 2.5 S 32 41 17 22 1025.2 1025.2 2.4
01/08:00pm 8.4 4.6 3.7 72 2.0 SW 13 22 7 12 1024.9 - 2.4
01/07:30pm 9.4 3.7 0.6 54 3.5 SSW 20 28 11 15 1024.2 1024.2 2.2
01/07:00pm 9.0 3.2 2.1 62 2.9 SSW 22 32 12 17 1023.7 - 2.2
01/06:30pm 9.7 4.2 2.1 59 3.2 SSW 20 41 11 22 1023.2 1023.2 2.2
01/06:00pm 9.5 3.8 3.0 64 2.8 SSW 22 39 12 21 1022.6 1022.6 2.2
01/05:30pm 9.1 2.8 1.8 60 3.0 SSW 24 35 13 19 1021.8 1021.8 2.2
01/05:00pm 8.7 1.8 2.7 66 2.5 SSW 28 41 15 22 1021.3 - 2.2
01/04:30pm 9.8 2.7 1.5 56 3.4 SW 28 50 15 27 1020.7 1020.7 1.6
01/04:00pm 8.9 0.7 2.7 65 2.6 SW 35 56 19 30 1020.0 - 1.6
01/03:55pm 10.2 2.7 3.3 62 3.0 SSW 32 50 17 27 1019.9 - 1.6
01/03:30pm 10.7 3.6 3.3 60 3.2 SSW 30 46 16 25 1019.5 1019.5 1.6
01/03:00pm 10.8 3.1 3.4 60 3.2 SSW 33 52 18 28 1019.1 1019.1 1.6
01/02:33pm 11.7 4.0 3.2 56 3.7 SSW 33 52 18 28 1018.3 - 1.6
01/02:30pm 11.1 3.3 2.7 56 3.6 SSW 33 48 18 26 1018.2 1018.2 1.6
01/02:00pm 10.7 3.2 3.3 60 3.2 SSW 32 61 17 33 1017.6 - 1.6
01/01:30pm 9.2 0.2 4.4 72 2.1 SSW 41 63 22 34 1017.1 1017.1 1.6
01/01:24pm 11.8 4.1 3.6 57 3.6 SSW 33 63 18 34 1016.8 - 1.6
01/01:00pm 10.9 2.4 3.0 58 3.4 SSW 37 54 20 29 1016.6 - 1.6
01/12:45pm 10.5 3.5 4.0 64 2.9 SSW 30 48 16 26 1016.5 - 1.6
01/12:30pm 8.9 0.6 4.1 72 2.1 S 37 52 20 28 1016.4 1016.4 1.6
01/12:04pm 10.7 2.8 2.3 56 3.6 SSW 33 54 18 29 1015.7 - 1.2
01/12:00pm 10.9 3.8 3.5 60 3.2 SSW 30 46 16 25 1015.7 1015.7 1.2
01/11:30am 8.8 0.1 1.7 61 2.9 SSW 37 56 20 30 1015.4 1015.4 1.2
01/11:27am 8.8 0.1 1.9 62 2.9 SSW 37 56 20 30 1015.4 - 1.2
01/11:18am 8.5 -0.1 2.7 67 2.4 S 37 44 20 24 1015.1 - 1.2
01/11:05am 8.3 -4.2 4.1 75 1.8 S 59 82 32 44 1014.8 - 1.2
01/11:03am 8.8 -5.2 4.0 72 2.1 S 67 82 36 44 1014.4 - 1.2
01/11:01am 10.4 1.7 3.9 64 2.9 SW 39 70 21 38 1014.3 - 1.2
01/11:00am 10.5 2.2 4.0 64 2.9 SW 37 56 20 30 1014.3 - 1.2
01/10:30am 9.7 1.8 4.1 68 2.5 SW 35 56 19 30 1013.5 1013.5 1.2
01/10:07am 8.7 1.5 3.1 68 2.4 SW 30 48 16 26 1012.9 - 1.2
01/10:00am 7.9 1.9 5.4 84 1.1 SSW 26 35 14 19 1012.6 - 1.2
01/09:30am 6.8 -3.7 3.8 81 1.3 SW 48 67 26 36 1012.4 1012.4 0.4
01/09:00am 8.6 -1.4 2.2 64 2.7 SW 44 65 24 35 1010.9 1010.9 13.4
01/08:30am 9.6 -0.1 2.7 62 2.9 SSW 43 63 23 34 1009.6 1009.6 13.2
01/08:00am 8.7 -0.1 3.5 70 2.2 SW 39 59 21 32 1008.4 - 13.2
01/07:30am 7.1 -1.7 5.4 89 0.8 SSW 41 85 22 46 1007.5 1007.5 13.2
01/07:20am 8.3 -1.4 4.1 75 1.8 SW 44 82 24 44 1007.5 - 12.2
01/07:01am 8.8 -0.3 4.0 72 2.1 SW 41 61 22 33 1006.5 - 12.2
01/07:00am 8.8 0.2 4.6 75 1.9 SW 39 56 21 30 1006.6 - 12.2
01/06:30am 7.6 -2.0 3.6 76 1.7 SW 43 76 23 41 1005.7 1005.7 12.0
01/06:12am 7.9 -0.6 3.0 71 2.1 WSW 37 80 20 43 1005.3 - 11.8
01/06:00am 8.0 0.7 2.5 68 2.3 WSW 30 54 16 29 1004.9 1004.9 11.8
01/05:30am 7.4 -1.4 3.8 78 1.5 WSW 39 65 21 35 1004.7 1004.7 11.8
01/05:00am 9.0 1.3 2.3 63 2.8 WSW 32 61 17 33 1003.8 - 11.6
01/04:44am 8.6 0.9 2.2 64 2.7 WSW 32 69 17 37 1003.7 - 11.6
01/04:30am 9.5 2.5 1.9 59 3.2 WSW 28 50 15 27 1003.5 1003.5 11.2
01/04:01am 9.2 1.4 2.8 64 2.7 WSW 33 52 18 28 1003.3 - 11.2
01/04:00am 9.2 1.0 2.5 63 2.8 WSW 35 52 19 28 1003.2 - 11.2
01/03:30am 7.8 0.1 3.3 73 1.9 WSW 33 61 18 33 1003.2 1003.2 11.2
01/03:03am 8.8 2.1 3.4 69 2.3 W 28 61 15 33 1003.3 - 10.6
01/03:00am 9.1 3.4 4.9 75 1.9 W 24 44 13 24 1003.1 1003.1 10.6
01/02:30am 7.8 2.8 3.5 74 1.8 W 19 33 10 18 1003.6 1003.6 10.4
01/02:00am 7.2 -0.3 4.2 81 1.3 WSW 33 76 18 41 1004.4 - 10.4
01/01:46am 6.8 -3.7 3.6 80 1.4 WSW 48 67 26 36 1004.8 - 9.8
01/01:30am 8.0 0.6 4.8 80 1.4 W 33 54 18 29 1003.7 1003.7 9.6
01/01:20am 7.0 0.4 4.3 83 1.2 W 28 50 15 27 1004.0 - 9.6
01/01:08am 6.5 -0.1 4.2 85 1.0 WNW 28 37 15 20 1004.4 - 9.6
01/01:00am 6.0 -2.3 4.0 87 0.8 WSW 37 69 20 37 1005.1 - 9.4
01/12:30am 6.8 -0.3 5.4 91 0.6 SW 32 52 17 28 1004.8 1004.8 8.4
01/12:16am 7.8 -1.0 5.6 86 1.0 SW 41 61 22 33 1004.6 - 8.0
01/12:15am 8.2 -0.2 5.7 84 1.1 SW 39 56 21 30 1004.5 - 7.8
01/12:00am 7.5 0.5 4.3 80 1.4 W 30 54 16 29 1004.2 1004.2 7.6
 
Date/Time
CST
Temp
°C
App
Temp
°C
Dew
Point
Rel
Hum
%
Delta-T
°C
Wind Press
QNH
hPa
Press
MSL
hPa
Rain
since 9 am
mm
Dir
 
Spd
km/h
Gust
km/h
Spd
kts
Gust
kts
31/11:30pm 10.4 2.7 2.3 57 3.5 W 32 56 17 30 1003.7 1003.7 7.2
31/11:12pm 10.3 3.2 1.2 53 3.8 W 28 50 15 27 1003.9 - 7.2
31/11:00pm 9.8 3.2 2.2 59 3.2 W 26 41 14 22 1003.9 - 7.2
31/10:30pm 9.1 2.4 3.5 68 2.4 W 28 52 15 28 1003.7 1003.7 7.2
31/10:06pm 10.4 3.4 1.8 55 3.6 W 28 56 15 30 1003.9 - 7.0
31/10:00pm 10.0 3.7 3.5 64 2.8 W 26 43 14 23 1004.0 - 7.0
31/09:38pm 9.8 3.0 2.9 62 3.0 W 28 56 15 30 1004.0 - 7.0
31/09:30pm 9.4 2.5 2.7 63 2.9 W 28 43 15 23 1004.0 1004.0 7.0
31/09:00pm 9.7 2.4 2.3 60 3.1 W 30 50 16 27 1003.9 1003.9 7.0
31/08:52pm 10.2 3.0 0.5 51 3.9 W 28 56 15 30 1003.8 - 7.0
31/08:30pm 8.3 1.8 2.5 67 2.4 W 26 41 14 22 1003.9 1003.9 7.0
31/08:04pm 9.8 2.8 2.2 59 3.2 W 28 61 15 33 1004.1 - 6.8
31/08:00pm 9.7 3.0 1.4 56 3.4 W 26 50 14 27 1003.9 - 6.8
31/07:30pm 9.6 2.1 1.5 57 3.4 W 30 50 16 27 1003.5 1003.5 6.8
31/07:15pm 9.6 2.2 2.0 59 3.2 W 30 50 16 27 1003.4 - 6.8
31/07:00pm 9.1 2.6 2.9 65 2.6 W 26 50 14 27 1003.2 - 6.8
31/06:30pm 9.9 2.1 1.5 56 3.5 W 32 56 17 30 1002.8 1002.8 6.8
31/06:00pm 9.9 3.0 2.5 60 3.2 W 28 48 15 26 1002.5 1002.5 6.8
31/05:30pm 10.4 3.1 2.5 58 3.4 W 30 54 16 29 1001.9 1001.9 6.6
31/05:00pm 9.0 1.5 3.2 67 2.5 WSW 32 56 17 30 1001.4 - 6.6
31/04:34pm 10.3 2.7 3.1 61 3.1 W 32 52 17 28 1001.0 - 6.2
31/04:30pm 10.4 2.8 3.0 60 3.2 W 32 46 17 25 1001.1 1001.1 6.2
31/04:11pm 9.8 3.0 3.1 63 2.9 W 28 46 15 25 1000.9 - 6.2
31/04:00pm 9.1 2.7 3.3 67 2.5 W 26 43 14 23 1001.0 - 6.2
31/03:36pm 9.4 2.7 3.4 66 2.6 W 28 61 15 33 1001.0 - 6.0
31/03:30pm 10.0 4.0 3.3 63 2.9 W 24 39 13 21 1000.5 1000.5 6.0
31/03:00pm 9.6 3.1 4.8 72 2.2 W 28 65 15 35 1000.3 1000.3 6.0
31/02:30pm 9.6 2.5 5.4 75 1.9 WSW 32 56 17 30 999.9 999.9 5.8
31/02:10pm 11.4 4.6 5.3 66 2.8 W 30 57 16 31 998.9 - 5.8
31/02:00pm 11.3 5.1 6.0 70 2.5 W 28 44 15 24 999.0 - 5.8
31/01:30pm 9.3 1.5 5.1 75 1.9 W 35 59 19 32 999.2 999.2 5.8
31/01:06pm 9.8 3.4 5.4 74 2.0 W 28 48 15 26 999.4 - 5.2
31/01:00pm 9.9 3.1 5.1 72 2.2 W 30 43 16 23 999.3 - 5.2
31/12:30pm 9.9 3.7 6.1 77 1.8 WSW 28 50 15 27 999.3 999.3 5.2
31/12:00pm 9.3 2.3 5.9 79 1.6 W 32 57 17 31 999.6 999.6 5.2
31/11:30am 9.3 2.8 6.7 84 1.2 WSW 30 56 16 30 999.7 999.7 4.4
31/11:00am 9.6 3.8 8.0 90 0.8 WSW 28 50 15 27 999.1 - 3.4
31/10:30am 9.8 3.2 8.4 91 0.7 WSW 33 67 18 36 998.6 998.6 2.4
31/10:00am 10.2 3.2 8.5 89 0.8 WSW 35 63 19 34 998.5 - 2.2
31/09:30am 11.5 6.3 10.2 92 0.7 WSW 28 56 15 30 997.4 997.4 1.6
31/09:22am 13.4 8.7 12.0 91 0.8 W 28 41 15 22 997.2 - 0.6
31/09:06am 14.7 6.4 11.5 81 1.7 NNW 46 65 25 35 996.1 - 0.0
31/09:00am 14.6 6.7 11.6 82 1.6 NNW 44 57 24 31 996.3 996.3 0.4
31/08:50am 14.3 6.4 11.3 82 1.6 NNW 44 65 24 35 996.6 - 0.4
31/08:30am 14.2 6.5 11.4 83 1.5 NNW 43 61 23 33 997.1 997.1 0.4
31/08:03am 14.1 6.3 11.3 83 1.5 NNW 43 63 23 34 997.5 - 0.4
31/08:00am 14.2 6.5 11.4 83 1.5 NNW 43 56 23 30 997.4 - 0.4
31/07:30am 13.9 5.2 11.2 84 1.4 NNW 48 69 26 37 997.9 997.9 0.4
31/07:18am 13.7 5.7 11.2 85 1.3 NNW 44 63 24 34 998.0 - 0.4
31/07:00am 13.9 5.9 11.1 83 1.5 NNW 44 61 24 33 998.2 - 0.4
31/06:30am 13.5 6.2 11.4 87 1.1 NNW 41 57 22 31 998.6 998.6 0.4
31/06:17am 13.6 6.2 11.3 86 1.2 NNW 41 59 22 32 998.7 - 0.4
31/06:00am 13.7 6.4 11.4 86 1.2 NNW 41 52 22 28 998.9 998.9 0.4
31/05:30am 13.6 6.6 11.3 86 1.2 NNW 39 56 21 30 999.5 999.5 0.4
31/05:05am 13.6 6.2 11.3 86 1.2 NNW 41 61 22 33 1000.0 - 0.4
31/05:00am 13.8 6.4 11.3 85 1.3 NNW 41 57 22 31 1000.0 - 0.4
31/04:39am 13.6 6.7 11.5 87 1.1 NNW 39 57 21 31 1000.3 - 0.4
31/04:30am 13.4 6.6 11.8 90 0.9 NNW 39 56 21 30 1000.4 1000.4 0.4
31/04:00am 14.2 8.0 11.4 83 1.5 NW 35 48 19 26 1001.1 - 0.4
31/03:30am 13.9 6.6 11.4 85 1.3 NW 41 61 22 33 1001.6 1001.6 0.4
31/03:21am 13.9 7.7 11.4 85 1.3 NNW 35 54 19 29 1001.8 - 0.4
31/03:00am 14.2 7.6 11.2 82 1.6 NNW 37 52 20 28 1002.2 1002.2 0.4
31/02:30am 14.3 8.1 11.5 83 1.5 NNW 35 48 19 26 1002.9 1002.9 0.4
31/02:00am 14.4 7.3 11.0 80 1.8 NNW 39 50 21 27 1003.2 - 0.4
31/01:30am 14.2 8.3 11.0 81 1.7 NNW 33 46 18 25 1003.7 1003.7 0.4
31/01:00am 14.1 7.9 11.3 83 1.5 NNW 35 48 19 26 1004.2 - 0.4
31/12:44am 14.1 8.2 11.3 83 1.5 NNW 33 52 18 28 1004.4 - 0.4
31/12:30am 14.2 7.2 11.2 82 1.6 NNW 39 52 21 28 1004.5 1004.5 0.4
31/12:00am 14.4 7.0 11.2 81 1.7 NNW 41 59 22 32 1004.9 1004.9 0.4
 
Date/Time
CST
Temp
°C
App
Temp
°C
Dew
Point
Rel
Hum
%
Delta-T
°C
Wind Press
QNH
hPa
Press
MSL
hPa
Rain
since 9 am
mm
Dir
 
Spd
km/h
Gust
km/h
Spd
kts
Gust
kts
30/11:38pm 14.3 7.6 11.1 81 1.7 NNW 37 59 20 32 1005.7 - 0.4
30/11:30pm 14.2 7.6 11.5 84 1.4 NNW 37 48 20 26 1005.8 1005.8 0.4
30/11:00pm 13.9 7.4 11.8 87 1.1 NNW 37 50 20 27 1006.1 - 0.4
30/10:30pm 13.8 8.2 12.0 89 1.0 NNW 33 46 18 25 1006.8 1006.8 0.4
30/10:00pm 13.9 8.2 11.8 87 1.1 NNW 33 46 18 25 1007.3 - 0.4
30/09:30pm 13.9 8.2 11.9 88 1.1 NNW 33 50 18 27 1007.8 1007.8 0.4
30/09:00pm 14.0 8.4 12.0 88 1.1 NNW 33 46 18 25 1008.2 1008.2 0.4
30/08:30pm 14.0 7.7 12.2 89 1.0 NNW 37 57 20 31 1008.7 1008.7 0.2
30/08:03pm 13.8 7.0 11.8 88 1.1 NW 39 63 21 34 1008.9 - 0.2
30/08:00pm 13.8 7.0 12.0 89 1.0 NW 39 56 21 30 1009.0 - 0.2
30/07:49pm 14.2 7.8 11.9 86 1.2 NW 37 57 20 31 1009.2 - 0.0
30/07:30pm 14.2 7.4 12.1 87 1.1 NNW 39 54 21 29 1009.4 1009.4 0.0
30/07:00pm 14.2 8.6 12.2 88 1.1 NNW 33 44 18 24 1009.5 - 0.0
30/06:30pm 13.9 8.4 11.9 88 1.1 NNW 32 39 17 21 1009.6 1009.6 0.0
30/06:00pm 13.6 9.3 12.2 91 0.8 NNW 26 37 14 20 1009.6 1009.6 0.0
30/05:30pm 13.5 9.6 12.2 92 0.7 NNW 24 37 13 20 1009.7 1009.7 0.0
30/05:00pm 14.2 8.1 11.7 85 1.3 NW 35 52 19 28 1009.5 - 0.0
30/04:40pm 14.7 9.5 11.5 81 1.7 NW 30 50 16 27 1009.6 - 0.0
30/04:30pm 14.9 10.4 11.5 80 1.8 NW 26 39 14 21 1009.6 1009.6 0.0
30/04:00pm 14.9 10.8 11.3 79 1.9 NW 24 37 13 20 1009.8 - 0.0
30/03:30pm 15.1 10.2 11.3 78 2.0 NW 28 39 15 21 1010.0 1010.0 0.0
30/03:00pm 15.9 11.1 11.5 75 2.4 NW 28 43 15 23 1010.1 1010.1 0.0
30/02:30pm 16.2 10.6 11.4 73 2.6 NW 32 44 17 24 1010.2 1010.2 0.0
30/02:00pm 16.5 11.2 11.4 72 2.8 NW 30 44 16 24 1010.5 - 0.0
30/01:30pm 15.8 9.6 11.4 75 2.4 NW 35 50 19 27 1010.7 1010.7 0.0
30/01:00pm 15.8 10.5 11.4 75 2.4 NW 30 41 16 22 1011.1 - 0.0
30/12:30pm 15.7 11.2 11.5 76 2.3 NW 26 37 14 20 1011.5 1011.5 0.0
30/12:00pm 16.5 11.8 12.1 75 2.4 NW 28 35 15 19 1012.0 1012.0 0.0
30/11:30am 15.9 11.6 12.1 78 2.1 NW 26 43 14 23 1012.6 1012.6 0.0
30/11:00am 15.6 10.2 12.2 80 1.9 WNW 32 48 17 26 1012.7 - 0.0
30/10:30am 15.8 11.2 12.4 80 1.9 NW 28 39 15 21 1012.8 1012.8 0.0
30/10:00am 15.1 10.6 12.6 85 1.4 NW 28 37 15 20 1012.9 - 0.0
30/09:30am 15.2 10.9 13.1 87 1.2 NW 28 39 15 21 1012.9 1012.9 0.0
30/09:00am 14.1 10.4 12.8 92 0.7 NW 24 37 13 20 1013.0 1013.0 4.2
30/08:30am 14.2 10.8 12.4 89 1.0 WNW 22 33 12 18 1012.8 1012.8 3.8
30/08:00am 14.0 9.5 12.6 91 0.8 WNW 28 43 15 23 1012.8 - 3.8
30/07:30am 14.3 10.5 12.3 88 1.1 WNW 24 37 13 20 1012.6 1012.6 3.6
30/07:00am 13.3 9.7 12.0 92 0.7 WNW 22 32 12 17 1012.5 - 3.6
30/06:30am 14.0 10.1 12.2 89 1.0 WNW 24 37 13 20 1012.3 1012.3 3.6
30/06:00am 13.8 11.4 12.5 92 0.7 WNW 17 28 9 15 1012.1 1012.1 3.6
30/05:30am 13.9 11.0 12.3 90 0.9 NW 19 28 10 15 1012.0 1012.0 3.4
30/05:00am 13.6 10.5 12.2 91 0.8 NW 20 26 11 14 1012.0 - 3.4
30/04:30am 13.6 9.7 12.0 90 0.9 WNW 24 33 13 18 1012.2 1012.2 3.4
30/04:00am 13.8 10.6 12.0 89 1.0 NW 20 32 11 17 1012.1 - 3.4
30/03:30am 13.3 10.0 11.5 89 1.0 NW 20 26 11 14 1012.3 1012.3 3.4
30/03:00am 13.5 10.4 11.7 89 1.0 NW 19 30 10 16 1012.4 1012.4 3.4
30/02:30am 14.1 10.6 12.1 88 1.1 WNW 22 33 12 18 1012.7 1012.7 3.4
30/02:00am 14.2 11.6 11.9 86 1.2 WNW 17 26 9 14 1012.9 - 3.4
30/01:30am 14.2 11.5 11.7 85 1.3 WNW 17 30 9 16 1013.1 1013.1 3.4
30/01:00am 14.0 10.9 11.7 86 1.2 W 19 28 10 15 1013.4 - 3.4
30/12:30am 14.0 10.9 11.7 86 1.2 W 19 32 10 17 1013.3 1013.3 3.4
30/12:00am 14.2 10.9 11.7 85 1.3 W 20 32 11 17 1013.4 1013.4 3.4
 
Date/Time
CST
Temp
°C
App
Temp
°C
Dew
Point
Rel
Hum
%
Delta-T
°C
Wind Press
QNH
hPa
Press
MSL
hPa
Rain
since 9 am
mm
Dir
 
Spd
km/h
Gust
km/h
Spd
kts
Gust
kts
29/11:30pm 14.1 10.5 11.8 86 1.2 W 22 43 12 23 1013.4 1013.4 3.4

Other Formats:

Comma delimited format used in spreadsheet applications
http://www.bom.gov.au/fwo/IDS60801/IDS60801.95816.axf

JavaScript Object Notation format (JSON) in row-major order
http://www.bom.gov.au/fwo/IDS60801/IDS60801.95816.json